Time;durP1;ratioP1;P1;durP2;ratioP2;P2;SDS_P1;SDS_P2;PMS_P1;PMS_P2;Temp;Humidity;BMP_temperature;BMP_pressure;BME280_temperature;BME280_humidity;BME280_pressure;Samples;Min_cycle;Max_cycle;Signal;HPM_P1;HPM_P2
2024/04/22 00:02:17;;;;;;;0.80;0.70;;;;;;;4.74;100.00;98746.23;105584;1253;61288;-74
2024/04/22 00:04:45;;;;;;;1.10;0.70;;;;;;;4.71;100.00;98750.01;105746;1261;74714;-75
2024/04/22 00:07:12;;;;;;;0.70;0.60;;;;;;;4.71;100.00;98746.15;105717;1253;71748;-72
2024/04/22 00:09:40;;;;;;;1.10;0.60;;;;;;;4.76;100.00;98752.00;105588;1254;72499;-75
2024/04/22 00:12:07;;;;;;;0.50;0.50;;;;;;;4.77;100.00;98752.81;105836;1254;61296;-72
2024/04/22 00:14:34;;;;;;;1.60;0.60;;;;;;;4.71;100.00;98754.44;105747;1254;61300;-73
2024/04/22 00:17:02;;;;;;;0.50;0.40;;;;;;;4.74;100.00;98752.58;105828;1259;73432;-75
2024/04/22 00:19:29;;;;;;;0.50;0.50;;;;;;;4.79;100.00;98753.45;105678;1254;70155;-74
2024/04/22 00:21:57;;;;;;;1.10;0.60;;;;;;;4.82;100.00;98752.30;105862;1253;72988;-74
2024/04/22 00:24:24;;;;;;;0.40;0.40;;;;;;;4.78;100.00;98753.77;105860;1254;61247;-74
2024/04/22 00:26:51;;;;;;;0.40;0.40;;;;;;;4.79;100.00;98756.08;105714;1257;61127;-73
2024/04/22 00:29:19;;;;;;;0.50;0.50;;;;;;;4.84;100.00;98758.92;105783;1253;74088;-75
2024/04/22 00:31:46;;;;;;;0.40;0.40;;;;;;;4.82;100.00;98764.05;105667;1253;70332;-75
2024/04/22 00:34:13;;;;;;;0.50;0.50;;;;;;;4.78;100.00;98771.66;105936;1254;72641;-74
2024/04/22 00:36:40;;;;;;;0.50;0.50;;;;;;;4.82;100.00;98777.04;105691;1253;61859;-72
2024/04/22 00:39:08;;;;;;;0.90;0.50;;;;;;;4.86;100.00;98778.38;106435;1254;61388;-71
2024/04/22 00:41:36;;;;;;;0.40;0.40;;;;;;;4.84;100.00;98783.83;106321;1254;73347;-74
2024/04/22 00:44:03;;;;;;;0.60;0.50;;;;;;;4.80;100.00;98786.31;106316;1253;69229;-72
2024/04/22 00:46:30;;;;;;;1.30;0.40;;;;;;;4.85;100.00;98790.59;105910;1253;71481;-73
2024/04/22 00:48:58;;;;;;;0.50;0.50;;;;;;;4.90;100.00;98797.29;105553;1260;61135;-73
2024/04/22 00:51:25;;;;;;;0.80;0.50;;;;;;;4.89;100.00;98803.70;105768;1253;61411;-75
2024/04/22 00:53:52;;;;;;;0.60;0.50;;;;;;;4.86;100.00;98803.11;105870;1258;72479;-72
2024/04/22 00:56:20;;;;;;;0.70;0.50;;;;;;;4.91;100.00;98806.48;105853;1253;69311;-70
2024/04/22 00:58:47;;;;;;;0.40;0.40;;;;;;;4.91;100.00;98804.20;105799;1254;72963;-72
2024/04/22 01:01:17;;;;;;;0.50;0.50;;;;;;;4.90;100.00;98800.55;105808;1254;61667;-73
2024/04/22 01:03:44;;;;;;;0.40;0.40;;;;;;;4.94;100.00;98800.51;105590;1254;61183;-71
2024/04/22 01:06:12;;;;;;;0.60;0.40;;;;;;;4.93;100.00;98800.80;105843;1260;74655;-72
2024/04/22 01:08:39;;;;;;;0.60;0.40;;;;;;;4.90;100.00;98809.59;105791;1254;70840;-72
2024/04/22 01:11:06;;;;;;;0.70;0.60;;;;;;;4.95;100.00;98812.42;105858;1254;73214;-73
2024/04/22 01:13:34;;;;;;;0.60;0.60;;;;;;;4.96;100.00;98816.05;105792;1254;61712;-71
2024/04/22 01:16:01;;;;;;;0.60;0.60;;;;;;;4.92;100.00;98819.87;105829;1255;61128;-72
2024/04/22 01:18:29;;;;;;;0.60;0.50;;;;;;;4.97;100.00;98823.95;105852;1259;74743;-72
2024/04/22 01:20:56;;;;;;;0.60;0.50;;;;;;;5.01;100.00;98825.48;105768;1253;67945;-73
2024/04/22 01:23:23;;;;;;;0.50;0.50;;;;;;;4.99;100.00;98832.52;105781;1259;71119;-72
2024/04/22 01:25:54;;;;;;;0.60;0.60;;;;;;;4.96;100.00;98834.90;105758;1254;63525;-73
2024/04/22 01:28:21;;;;;;;1.90;0.90;;;;;;;5.03;100.00;98843.02;106222;1253;61315;-72
2024/04/22 01:30:49;;;;;;;0.70;0.60;;;;;;;5.06;100.00;98851.80;106144;1258;73770;-70
2024/04/22 01:33:16;;;;;;;0.60;0.60;;;;;;;5.03;100.00;98852.52;105602;1260;68723;-74
2024/04/22 01:35:44;;;;;;;0.80;0.60;;;;;;;5.04;100.00;98859.42;105673;1260;71533;-73
2024/04/22 01:38:12;;;;;;;1.00;0.60;;;;;;;5.09;100.00;98863.09;105568;1253;61366;-72
2024/04/22 01:40:39;;;;;;;2.00;1.00;;;;;;;5.06;100.00;98869.58;105819;1256;61250;-72
2024/04/22 01:43:06;;;;;;;0.50;0.50;;;;;;;5.07;100.00;98872.09;105916;1253;74670;-75
2024/04/22 01:45:33;;;;;;;0.60;0.60;;;;;;;5.10;100.00;98874.75;105894;1259;68743;-73
2024/04/22 01:48:01;;;;;;;0.60;0.50;;;;;;;5.13;100.00;98875.98;105961;1259;71610;-74
2024/04/22 01:50:28;;;;;;;0.60;0.60;;;;;;;5.12;100.00;98887.23;105927;1258;61222;-73
2024/04/22 01:52:56;;;;;;;0.60;0.60;;;;;;;5.06;100.00;98897.29;105777;1259;61212;-73
2024/04/22 01:55:23;;;;;;;0.70;0.40;;;;;;;5.09;100.00;98894.18;105858;1253;73380;-74
2024/04/22 01:57:51;;;;;;;2.60;0.60;;;;;;;5.15;100.00;98894.98;105712;1261;68895;-72
2024/04/22 02:00:19;;;;;;;0.50;0.50;;;;;;;5.17;100.00;98898.84;105701;1253;71522;-74
2024/04/22 02:02:46;;;;;;;0.90;0.70;;;;;;;5.11;100.00;98906.19;105787;1253;61244;-74
2024/04/22 02:05:14;;;;;;;0.90;0.40;;;;;;;5.12;100.00;98912.21;105831;1253;61266;-74
2024/04/22 02:07:42;;;;;;;1.60;0.70;;;;;;;5.18;100.00;98914.16;105822;1259;74663;-72
2024/04/22 02:10:11;;;;;;;0.60;0.50;;;;;;;5.16;100.00;98917.88;105670;1253;71443;-73
2024/04/22 02:12:51;;;;;;;0.40;0.40;;;;;;;5.14;100.00;98923.67;105825;1258;72440;-76
2024/04/22 02:15:18;;;;;;;0.50;0.50;;;;;;;5.19;100.00;98925.79;105892;1253;61610;-75
2024/04/22 02:17:45;;;;;;;0.50;0.50;;;;;;;5.21;100.00;98926.83;106144;1258;61220;-73
2024/04/22 02:20:13;;;;;;;0.70;0.50;;;;;;;5.17;100.00;98932.69;106489;1258;75143;-75
2024/04/22 02:22:40;;;;;;;1.00;0.50;;;;;;;5.21;100.00;98940.32;105896;1258;70814;-76
2024/04/22 02:25:08;;;;;;;1.30;0.60;;;;;;;5.26;100.00;98943.91;105758;1254;71835;-74
2024/04/22 02:27:35;;;;;;;0.50;0.50;;;;;;;5.24;100.00;98951.16;105779;1255;61389;-74
2024/04/22 02:30:03;;;;;;;0.90;0.40;;;;;;;5.21;100.00;98954.02;105573;1253;61288;-74
2024/04/22 02:32:30;;;;;;;1.60;0.70;;;;;;;5.26;100.00;98954.58;105749;1253;75652;-74
2024/04/22 02:34:58;;;;;;;1.40;0.50;;;;;;;5.27;99.95;98956.56;105733;1260;68838;-74
2024/04/22 02:37:25;;;;;;;0.50;0.50;;;;;;;5.28;100.00;98961.81;105491;1256;72961;-74
2024/04/22 02:39:52;;;;;;;0.50;0.50;;;;;;;5.25;99.86;98968.17;105676;1254;61705;-74
2024/04/22 02:42:20;;;;;;;0.90;0.60;;;;;;;5.28;99.40;98969.52;105820;1253;61461;-74
2024/04/22 02:44:47;;;;;;;0.60;0.60;;;;;;;5.33;99.56;98974.15;105749;1253;72522;-74
2024/04/22 02:47:14;;;;;;;0.60;0.60;;;;;;;5.31;98.68;98972.13;105895;1258;69654;-75
2024/04/22 02:49:42;;;;;;;0.50;0.50;;;;;;;5.29;99.66;98976.45;105797;1258;75009;-74
2024/04/22 02:52:09;;;;;;;0.60;0.60;;;;;;;5.34;99.71;98978.73;105732;1254;61326;-71
2024/04/22 02:54:36;;;;;;;0.50;0.50;;;;;;;5.35;99.67;98984.48;105744;1253;61265;-77
2024/04/22 02:57:04;;;;;;;0.60;0.60;;;;;;;5.31;98.38;98993.13;105774;1254;73631;-76
2024/04/22 02:59:31;;;;;;;1.70;0.50;;;;;;;5.33;98.00;98988.20;105610;1254;70057;-74
2024/04/22 03:01:59;;;;;;;0.50;0.50;;;;;;;5.37;99.17;98994.49;105793;1254;72481;-75
2024/04/22 03:04:26;;;;;;;2.20;1.10;;;;;;;5.32;98.95;98995.05;105831;1254;61247;-74
2024/04/22 03:06:53;;;;;;;0.80;0.50;;;;;;;5.31;96.44;99000.80;106270;1254;61290;-73
2024/04/22 03:09:21;;;;;;;0.60;0.50;;;;;;;5.35;97.64;99005.02;106489;1258;73404;-74
2024/04/22 03:11:48;;;;;;;0.50;0.50;;;;;;;5.35;97.02;99005.05;106226;1257;70144;-77
2024/04/22 03:14:16;;;;;;;0.50;0.50;;;;;;;5.39;98.85;99008.96;105879;1254;72884;-75
2024/04/22 03:16:43;;;;;;;0.50;0.50;;;;;;;5.40;99.46;99013.28;105642;1254;61349;-76
2024/04/22 03:19:11;;;;;;;1.90;0.60;;;;;;;5.37;97.82;99026.21;105870;1253;61248;-74
2024/04/22 03:21:38;;;;;;;1.10;0.60;;;;;;;5.42;97.75;99032.36;105597;1261;74363;-73
2024/04/22 03:24:05;;;;;;;0.70;0.60;;;;;;;5.45;98.16;99034.08;105902;1253;70273;-74
2024/04/22 03:26:33;;;;;;;0.80;0.80;;;;;;;5.40;97.07;99044.17;105543;1260;71753;-71
2024/04/22 03:29:00;;;;;;;5.60;3.60;;;;;;;5.44;95.55;99041.50;105712;1258;61247;-72
2024/04/22 03:31:31;;;;;;;1.20;0.70;;;;;;;5.48;96.87;99047.94;105753;1258;61269;-72
2024/04/22 03:33:59;;;;;;;0.60;0.50;;;;;;;5.44;94.64;99055.70;105881;1256;77022;-73
2024/04/22 03:36:26;;;;;;;0.50;0.50;;;;;;;5.47;94.52;99055.09;105800;1253;68765;-73
2024/04/22 03:38:54;;;;;;;0.60;0.60;;;;;;;5.52;95.14;99055.13;105755;1253;71442;-73
2024/04/22 03:41:22;;;;;;;0.50;0.50;;;;;;;5.49;91.92;99063.67;105997;1253;61308;-73
2024/04/22 03:43:50;;;;;;;0.40;0.40;;;;;;;5.47;95.53;99067.67;105808;1258;61256;-71
2024/04/22 03:51:50;;;;;;;1.40;0.90;;;;;;;5.54;95.06;99072.29;105690;1257;71483;-72
2024/04/22 03:54:17;;;;;;;1.00;0.70;;;;;;;5.53;95.60;99072.27;105549;1254;61337;-72
2024/04/22 03:56:44;;;;;;;0.80;0.60;;;;;;;5.59;96.16;99079.53;105668;1253;61192;-72
2024/04/22 03:59:11;;;;;;;0.60;0.60;;;;;;;5.58;95.16;99073.36;105896;1257;75566;-73
2024/04/22 04:01:39;;;;;;;1.20;0.50;;;;;;;5.63;94.89;99084.41;105888;1257;69329;-72
2024/04/22 04:04:06;;;;;;;0.60;0.50;;;;;;;5.66;93.29;99081.27;105668;1254;72736;-75
2024/04/22 04:06:34;;;;;;;0.60;0.60;;;;;;;5.63;92.97;99081.78;105637;1256;61281;-76
2024/04/22 04:09:01;;;;;;;1.90;0.70;;;;;;;5.64;93.78;99082.34;105551;1261;61255;-76
2024/04/22 04:11:36;;;;;;;0.70;0.70;;;;;;;5.71;93.99;99089.73;105704;1255;74662;-73
2024/04/22 04:14:04;;;;;;;1.30;0.50;;;;;;;5.69;94.05;99085.86;105917;1253;70177;-75
2024/04/22 04:16:31;;;;;;;0.90;0.80;;;;;;;5.66;92.73;99098.73;105718;1254;73116;-72
2024/04/22 04:18:59;;;;;;;0.60;0.60;;;;;;;5.72;91.10;99103.25;105806;1254;61225;-76
2024/04/22 04:21:26;;;;;;;0.70;0.60;;;;;;;5.76;91.51;99104.54;105978;1253;61212;-76
2024/04/22 04:23:54;;;;;;;1.10;0.70;;;;;;;5.74;92.32;99111.11;105875;1253;74309;-76
2024/04/22 04:26:21;;;;;;;1.10;0.60;;;;;;;5.71;93.29;99112.11;105764;1259;68997;-74
2024/04/22 04:28:48;;;;;;;2.50;0.80;;;;;;;5.79;93.30;99126.10;105775;1254;72712;-73
2024/04/22 04:31:18;;;;;;;1.30;0.60;;;;;;;5.84;91.87;99135.58;105903;1254;61273;-72
2024/04/22 04:33:45;;;;;;;0.80;0.60;;;;;;;5.84;92.15;99137.89;105880;1255;61262;-73
2024/04/22 04:36:12;;;;;;;0.70;0.70;;;;;;;5.90;93.72;99139.90;105794;1255;73557;-73
2024/04/22 04:38:40;;;;;;;0.60;0.60;;;;;;;6.00;93.77;99149.27;105822;1253;69993;-75
2024/04/22 04:41:07;;;;;;;2.40;0.70;;;;;;;6.02;92.88;99152.11;105584;1260;72705;-74
2024/04/22 04:43:34;;;;;;;1.60;0.90;;;;;;;6.04;92.34;99157.91;105871;1258;62041;-75
2024/04/22 04:46:02;;;;;;;1.20;0.70;;;;;;;6.14;93.84;99163.25;106006;1259;61287;-72
2024/04/22 04:48:29;;;;;;;1.40;1.00;;;;;;;6.18;93.80;99167.52;105883;1260;74658;-73
2024/04/22 04:50:56;;;;;;;3.50;0.90;;;;;;;6.17;93.89;99170.30;105672;1260;69369;-71
2024/04/22 04:53:23;;;;;;;1.10;0.80;;;;;;;6.19;93.89;99169.89;105737;1253;71913;-74
2024/04/22 04:55:51;;;;;;;4.10;1.00;;;;;;;6.29;93.81;99175.20;105734;1253;61230;-72
2024/04/22 04:58:18;;;;;;;0.70;0.70;;;;;;;6.31;91.76;99174.48;105708;1253;61743;-75
2024/04/22 05:00:50;;;;;;;0.60;0.60;;;;;;;6.26;91.56;99178.55;105883;1253;75653;-74
2024/04/22 05:03:17;;;;;;;2.90;1.10;;;;;;;6.26;91.83;99179.94;105874;1253;69358;-74
2024/04/22 05:05:45;;;;;;;0.90;0.70;;;;;;;6.33;90.65;99175.41;105516;1260;76027;-74
2024/04/22 05:08:12;;;;;;;0.90;0.80;;;;;;;6.33;91.62;99181.69;105851;1253;61354;-75
2024/04/22 05:10:39;;;;;;;2.20;0.80;;;;;;;6.32;92.41;99184.49;105607;1259;61205;-74
2024/04/22 05:13:07;;;;;;;1.70;0.70;;;;;;;6.30;91.20;99187.93;105904;1254;73431;-74
2024/04/22 05:15:35;;;;;;;2.80;0.90;;;;;;;6.38;91.78;99196.04;105900;1256;68508;-76
2024/04/22 05:18:02;;;;;;;1.10;1.00;;;;;;;6.38;89.94;99198.14;105748;1253;73427;-75
2024/04/22 05:20:30;;;;;;;1.80;0.80;;;;;;;6.31;88.59;99207.01;105766;1253;61282;-75
2024/04/22 05:22:57;;;;;;;2.80;1.10;;;;;;;6.32;92.05;99205.72;105703;1253;62522;-74
2024/04/22 05:25:25;;;;;;;2.20;1.20;;;;;;;6.40;91.68;99208.95;105783;1258;73476;-75
2024/04/22 05:27:52;;;;;;;2.80;1.10;;;;;;;6.40;91.68;99220.17;105792;1258;70014;-75
2024/04/22 05:30:21;;;;;;;1.50;1.00;;;;;;;6.39;92.10;99225.73;105764;1253;71429;-73
2024/04/22 05:32:48;;;;;;;1.60;0.90;;;;;;;6.46;91.40;99223.98;105752;1253;61698;-73
2024/04/22 05:38:02;;;;;;;2.20;1.00;;;;;;;6.50;89.83;99240.55;106085;1253;73157;-75
2024/04/22 05:40:29;;;;;;;1.60;1.00;;;;;;;6.50;90.92;99239.13;105836;1260;70190;-74
2024/04/22 05:42:57;;;;;;;1.70;1.10;;;;;;;6.56;90.41;99245.76;105642;1256;75208;-76
2024/04/22 05:45:25;;;;;;;1.40;1.10;;;;;;;6.57;90.57;99253.20;105875;1256;61303;-75
2024/04/22 05:47:52;;;;;;;2.20;1.40;;;;;;;6.54;89.84;99257.06;105820;1254;61261;-74
2024/04/22 05:50:20;;;;;;;3.40;1.90;;;;;;;6.59;88.81;99261.77;105957;1259;74771;-71
2024/04/22 05:52:47;;;;;;;3.30;1.80;;;;;;;6.68;89.48;99268.85;105837;1253;70842;-72
2024/04/22 05:55:14;;;;;;;2.10;1.40;;;;;;;6.67;88.75;99270.16;105892;1257;73883;-74
2024/04/22 05:57:41;;;;;;;1.40;1.20;;;;;;;6.67;89.99;99279.98;107064;1253;63979;-75
2024/04/22 06:00:11;;;;;;;1.70;1.30;;;;;;;6.77;89.60;99285.00;105929;1253;61267;-75
2024/04/22 06:02:39;;;;;;;2.20;2.00;;;;;;;6.82;89.79;99289.21;105788;1253;74791;-75
2024/04/22 06:05:06;;;;;;;2.50;2.20;;;;;;;6.82;91.24;99296.24;105709;1253;68676;-76
2024/04/22 06:07:34;;;;;;;2.50;1.90;;;;;;;6.87;90.56;99302.60;105669;1254;73751;-76
2024/04/22 06:10:01;;;;;;;5.10;2.70;;;;;;;6.96;87.45;99309.99;105807;1258;62097;-74
2024/04/22 06:12:28;;;;;;;3.40;2.60;;;;;;;6.95;87.48;99323.28;105960;1253;61347;-82
2024/04/22 06:14:56;;;;;;;3.00;1.70;;;;;;;6.89;85.16;99325.42;106007;1253;77005;-82
2024/04/22 06:17:24;;;;;;;4.50;2.70;;;;;;;6.94;86.79;99335.42;105929;1258;71726;-79
2024/04/22 06:19:52;;;;;;;2.90;2.40;;;;;;;6.95;85.63;99340.94;106195;1260;72737;-80
2024/04/22 06:22:19;;;;;;;3.00;2.30;;;;;;;6.88;86.33;99349.69;106482;1253;61344;-82
2024/04/22 06:24:48;;;;;;;2.80;2.10;;;;;;;6.89;89.65;99353.65;107444;1253;62236;-80
2024/04/22 06:27:16;;;;;;;3.20;2.40;;;;;;;6.98;87.84;99367.95;108253;1259;76875;-83
2024/04/22 06:29:44;;;;;;;2.80;1.90;;;;;;;7.00;88.73;99371.55;107794;1253;70795;-80
2024/04/22 06:32:11;;;;;;;1.80;1.50;;;;;;;6.98;87.42;99374.05;106503;1253;72990;-80
2024/04/22 06:34:39;;;;;;;1.90;1.70;;;;;;;7.07;88.03;99376.30;107419;1253;61965;-83
2024/04/22 06:37:06;;;;;;;4.40;1.80;;;;;;;7.18;85.86;99385.23;106442;1256;61557;-83
2024/04/22 06:39:34;;;;;;;1.90;1.60;;;;;;;7.21;87.82;99391.98;106256;1253;75175;-84
2024/04/22 06:42:01;;;;;;;3.30;1.70;;;;;;;7.16;82.77;99411.65;106348;1260;68539;-82
2024/04/22 06:44:28;;;;;;;2.00;1.50;;;;;;;7.16;86.43;99415.70;106631;1254;72598;-83
2024/04/22 06:46:58;;;;;;;2.50;1.80;;;;;;;7.27;87.95;99430.09;107744;1253;62549;-81
2024/04/22 06:49:26;;;;;;;2.80;1.60;;;;;;;7.36;85.00;99430.67;108286;1253;61204;-81
2024/04/22 06:51:57;;;;;;;2.10;1.60;;;;;;;7.34;84.03;99434.92;108216;1254;74512;-81
2024/04/22 06:54:24;;;;;;;2.70;1.50;;;;;;;7.29;84.84;99439.75;108409;1253;72783;-81
2024/04/22 06:56:52;;;;;;;1.40;1.30;;;;;;;7.31;84.21;99444.32;108889;1253;71631;-83
2024/04/22 06:59:19;;;;;;;2.60;1.40;;;;;;;7.40;82.77;99459.81;108579;1253;60475;-82
2024/04/22 07:01:47;;;;;;;7.50;1.70;;;;;;;7.42;82.17;99472.02;108856;1260;59315;-80
2024/04/22 07:04:15;;;;;;;3.60;1.60;;;;;;;7.38;82.64;99477.83;108532;1253;75622;-80
2024/04/22 07:06:46;;;;;;;2.30;1.80;;;;;;;7.36;84.35;99474.38;108744;1253;70176;-81
2024/04/22 07:09:16;;;;;;;1.90;1.50;;;;;;;7.37;81.78;99487.10;108162;1256;71413;-81
2024/04/22 07:11:44;;;;;;;3.70;1.20;;;;;;;7.43;82.10;99479.79;108231;1254;62396;-81
2024/04/22 07:14:11;;;;;;;1.90;1.70;;;;;;;7.46;81.09;99482.32;108464;1253;59752;-81
2024/04/22 07:16:39;;;;;;;1.60;1.30;;;;;;;7.44;81.40;99491.15;108566;1253;75944;-80
2024/04/22 07:19:08;;;;;;;2.70;1.60;;;;;;;7.41;83.51;99490.60;109275;1254;68808;-86
2024/04/22 07:21:35;;;;;;;2.40;1.90;;;;;;;7.51;86.07;99497.52;109330;1253;71956;-84
2024/04/22 07:24:03;;;;;;;2.50;2.00;;;;;;;7.63;83.71;99504.88;109035;1254;61247;-82
2024/04/22 07:26:30;;;;;;;1.80;1.40;;;;;;;7.65;80.99;99513.71;109099;1253;61146;-83
2024/04/22 07:28:58;;;;;;;2.20;1.80;;;;;;;7.56;76.75;99529.48;109045;1253;75609;-87
2024/04/22 07:31:26;;;;;;;2.40;1.90;;;;;;;7.50;80.04;99525.08;109123;1253;70073;-84
2024/04/22 07:33:57;;;;;;;2.40;1.60;;;;;;;7.46;79.38;99532.17;109020;1254;73510;-81
2024/04/22 07:36:35;;;;;;;3.90;2.10;;;;;;;7.55;79.46;99534.52;108582;1257;61177;-83
2024/04/22 07:39:08;;;;;;;1.90;1.70;;;;;;;7.58;81.36;99539.41;108429;1253;193926;-83
2024/04/22 07:43:51;;;;;;;3.50;1.80;;;;;;;7.68;82.99;99552.06;105670;1292;599693;-85
2024/04/22 07:46:21;;;;;;;1.70;1.40;;;;;;;7.73;81.61;99557.33;108520;1272;62000;-84
2024/04/22 07:48:51;;;;;;;1.70;1.60;;;;;;;7.87;80.01;99563.48;108694;1267;59365;-83
2024/04/22 07:51:18;;;;;;;2.20;1.60;;;;;;;7.92;80.21;99563.94;108672;1267;73370;-84
2024/04/22 07:53:45;;;;;;;1.60;1.50;;;;;;;7.86;77.82;99572.21;108571;1267;69813;-84
2024/04/22 07:56:16;;;;;;;3.20;1.70;;;;;;;7.83;78.79;99573.43;108452;1265;247958;-82
2024/04/22 07:58:46;;;;;;;2.80;1.90;;;;;;;7.78;78.79;99583.98;108661;1262;57999;-85
2024/04/22 08:01:14;;;;;;;3.00;2.10;;;;;;;7.77;77.40;99581.09;108660;1265;60085;-83
2024/04/22 08:03:42;;;;;;;2.50;1.90;;;;;;;7.82;78.33;99594.84;108807;1263;73024;-85
2024/04/22 08:06:17;;;;;;;2.00;1.80;;;;;;;7.77;76.82;99602.21;108699;1263;68901;-84
2024/04/22 08:08:45;;;;;;;2.60;1.80;;;;;;;7.76;78.83;99604.83;108933;1259;72546;-85
2024/04/22 08:11:12;;;;;;;3.40;2.00;;;;;;;7.77;78.22;99607.59;108887;1259;60948;-84
2024/04/22 08:13:39;;;;;;;2.30;1.90;;;;;;;7.88;79.17;99603.66;108982;1257;60009;-85
2024/04/22 08:16:06;;;;;;;3.00;2.10;;;;;;;8.01;77.80;99604.70;108928;1259;72954;-84
2024/04/22 08:18:33;;;;;;;2.60;2.30;;;;;;;8.04;77.04;99617.17;108874;1261;68735;-84
2024/04/22 08:21:02;;;;;;;2.10;1.90;;;;;;;8.01;75.99;99616.54;108891;1257;74081;-85
2024/04/22 08:23:32;;;;;;;3.50;2.40;;;;;;;7.99;76.15;99622.06;108840;1257;59221;-85
2024/04/22 08:26:00;;;;;;;3.70;2.10;;;;;;;7.96;74.77;99622.92;108739;1254;60395;-85
2024/04/22 08:28:27;;;;;;;2.40;1.80;;;;;;;7.95;75.60;99616.27;108467;1254;73970;-85
2024/04/22 08:31:01;;;;;;;3.70;2.10;;;;;;;8.02;76.36;99624.41;108810;1254;69215;-86
2024/04/22 08:33:28;;;;;;;10.00;2.60;;;;;;;8.13;76.34;99623.70;109291;1253;71439;-87
2024/04/22 08:35:58;;;;;;;1.90;1.70;;;;;;;8.16;77.71;99626.06;108946;1254;58607;-86
2024/04/22 08:38:25;;;;;;;3.50;2.20;;;;;;;8.19;77.00;99630.63;108140;1254;60548;-85
2024/04/22 08:40:52;;;;;;;3.00;2.30;;;;;;;8.24;78.58;99641.48;108197;1254;73786;-86
2024/04/22 08:43:23;;;;;;;3.20;2.00;;;;;;;8.31;73.84;99653.23;108342;1253;69287;-84
2024/04/22 08:45:52;;;;;;;2.80;2.40;;;;;;;8.32;73.30;99656.74;108448;1254;70780;-85
2024/04/22 08:48:20;;;;;;;2.90;1.90;;;;;;;8.26;73.93;99657.14;107682;1254;60412;-86
2024/04/22 08:50:50;;;;;;;3.60;2.90;;;;;;;8.22;75.28;99661.08;108275;1254;60304;-85
2024/04/22 08:53:17;;;;;;;4.00;2.80;;;;;;;8.23;76.58;99661.19;108565;1254;73708;-86
2024/04/22 08:55:44;;;;;;;3.20;2.00;;;;;;;8.29;77.36;99667.10;108061;1254;71116;-85
2024/04/22 08:58:11;;;;;;;2.40;2.20;;;;;;;8.40;74.61;99672.46;108519;1254;72678;-84
2024/04/22 09:00:39;;;;;;;2.50;2.30;;;;;;;8.40;75.38;99677.39;108394;1254;59068;-85
2024/04/22 09:03:06;;;;;;;3.70;1.90;;;;;;;8.36;75.94;99680.63;108905;1254;60348;-85
2024/04/22 09:05:34;;;;;;;2.30;2.10;;;;;;;8.33;75.62;99685.23;108957;1256;72541;-84
2024/04/22 09:08:06;;;;;;;4.60;3.30;;;;;;;8.31;75.62;99686.48;109112;1254;68803;-83
2024/04/22 09:10:36;;;;;;;6.20;2.50;;;;;;;8.34;75.10;99687.00;109297;1254;71707;-85
2024/04/22 09:13:23;;;;;;;2.80;2.40;;;;;;;8.53;76.40;99694.20;109309;1254;60828;-80
2024/04/22 09:15:56;;;;;;;4.30;2.20;;;;;;;8.71;77.77;99696.86;108905;1254;59543;-87
2024/04/22 09:18:27;;;;;;;2.30;1.90;;;;;;;8.89;75.77;99704.11;109397;1253;73797;-85
2024/04/22 09:21:04;;;;;;;3.20;2.10;;;;;;;9.07;75.98;99703.13;109348;1253;69585;-84
2024/04/22 09:23:36;;;;;;;2.40;1.70;;;;;;;9.24;71.71;99712.27;108960;1253;71550;-85
2024/04/22 09:26:04;;;;;;;3.40;2.10;;;;;;;9.36;70.52;99715.16;109070;1253;60072;-81
2024/04/22 09:28:35;;;;;;;4.80;2.20;;;;;;;9.41;68.42;99716.37;109109;1258;58746;-82
2024/04/22 09:31:04;;;;;;;2.70;1.90;;;;;;;9.48;68.28;99720.20;108889;1253;72699;-82
2024/04/22 09:33:38;;;;;;;1.70;1.50;;;;;;;9.63;66.96;99723.61;109148;1253;70201;-82
2024/04/22 09:36:06;;;;;;;1.90;1.80;;;;;;;9.78;66.39;99714.02;108978;1254;72341;-83
2024/04/22 09:38:33;;;;;;;4.10;1.90;;;;;;;9.87;66.31;99715.70;108920;1254;59204;-84
2024/04/22 09:41:17;;;;;;;2.10;1.70;;;;;;;9.92;65.75;99717.63;109244;1253;59311;-81
2024/04/22 09:43:44;;;;;;;2.50;1.90;;;;;;;9.89;65.35;99713.09;108891;1253;72646;-82
2024/04/22 09:46:22;;;;;;;3.20;2.30;;;;;;;9.87;67.98;99712.59;109145;1253;70048;-81
2024/04/22 09:48:49;;;;;;;1.90;1.80;;;;;;;9.92;68.14;99716.30;109087;1253;71572;-82
2024/04/22 09:51:16;;;;;;;2.50;2.10;;;;;;;9.97;66.90;99720.48;108848;1253;60538;-79
2024/04/22 09:53:46;;;;;;;2.10;1.90;;;;;;;10.04;67.53;99722.05;108718;1253;60176;-79
2024/04/22 09:56:28;;;;;;;1.70;1.60;;;;;;;10.07;66.76;99724.21;108810;1253;74511;-82
2024/04/22 09:58:59;;;;;;;2.00;1.70;;;;;;;10.04;65.52;99722.02;108497;1253;68995;-80
2024/04/22 10:01:26;;;;;;;2.30;1.70;;;;;;;9.99;65.98;99724.74;109199;1252;71391;-82
2024/04/22 10:03:57;;;;;;;3.80;2.10;;;;;;;10.07;66.81;99721.00;109320;1253;60195;-83
2024/04/22 10:06:24;;;;;;;4.30;1.90;;;;;;;10.34;66.53;99722.72;109206;1253;59101;-84
2024/04/22 10:08:52;;;;;;;3.70;1.70;;;;;;;10.68;64.57;99731.56;109068;1254;72732;-84
2024/04/22 10:11:20;;;;;;;3.20;2.20;;;;;;;10.88;63.80;99733.45;109224;1253;70072;-83
2024/04/22 10:13:47;;;;;;;2.20;1.80;;;;;;;11.01;64.28;99740.70;109194;1253;71450;-80
2024/04/22 10:16:14;;;;;;;3.50;1.90;;;;;;;11.11;63.90;99743.45;108912;1254;61471;-82
2024/04/22 10:18:48;;;;;;;3.10;1.70;;;;;;;11.20;64.58;99747.64;109331;1254;60001;-85
2024/04/22 10:21:18;;;;;;;1.70;1.60;;;;;;;11.34;64.97;99752.44;108906;1254;72743;-88
2024/04/22 10:23:47;;;;;;;2.50;2.30;;;;;;;11.43;61.88;99756.79;109344;1253;70774;-88
2024/04/22 10:26:16;;;;;;;4.00;1.80;;;;;;;11.49;62.62;99758.92;109404;1253;71683;-87
2024/04/22 10:28:45;;;;;;;2.50;1.80;;;;;;;11.55;60.91;99768.30;109270;1253;58807;-83
2024/04/22 10:31:18;;;;;;;1.80;1.70;;;;;;;11.71;62.62;99770.32;109480;1254;59398;-83
2024/04/22 10:33:45;;;;;;;3.70;1.70;;;;;;;12.03;62.27;99773.95;109401;1253;73851;-83
2024/04/22 10:36:12;;;;;;;2.30;2.00;;;;;;;12.42;60.74;99771.73;109429;1253;68932;-82
2024/04/22 10:38:38;;;;;;;1.90;1.80;;;;;;;12.74;60.65;99772.24;109232;1253;71171;-84
2024/04/22 10:41:06;;;;;;;3.00;2.40;;;;;;;13.05;59.28;99778.70;109098;1254;60640;-83
2024/04/22 10:43:35;;;;;;;3.00;2.40;;;;;;;13.22;57.18;99782.41;109140;1253;59093;-82
2024/04/22 10:46:02;;;;;;;2.20;2.00;;;;;;;13.27;57.23;99785.73;109060;1254;73846;-85
2024/04/22 10:48:30;;;;;;;3.70;2.30;;;;;;;13.36;58.19;99789.08;109339;1253;69542;-83
2024/04/22 10:50:58;;;;;;;2.50;2.20;;;;;;;13.59;55.49;99790.56;109267;1253;72847;-84
2024/04/22 10:53:28;;;;;;;2.00;1.80;;;;;;;13.88;57.33;99789.55;109189;1253;62703;-84
2024/04/22 10:55:55;;;;;;;3.80;1.60;;;;;;;14.39;57.60;99782.87;109087;1253;60425;-84
2024/04/22 10:58:28;;;;;;;4.00;1.70;;;;;;;15.03;54.40;99783.02;109196;1253;71856;-82
2024/04/22 11:01:02;;;;;;;2.00;1.50;;;;;;;15.67;56.92;99777.26;109421;1253;69476;-83
2024/04/22 11:03:34;;;;;;;2.80;2.50;;;;;;;16.56;58.24;99776.12;109280;1253;72957;-83
2024/04/22 11:06:07;;;;;;;2.10;1.80;;;;;;;17.38;56.77;99774.11;109181;1253;60197;-85
2024/04/22 11:08:34;;;;;;;1.90;1.50;;;;;;;17.94;52.19;99776.83;109265;1253;59380;-85
2024/04/22 11:11:12;;;;;;;1.90;1.60;;;;;;;18.03;49.40;99787.16;109436;1253;72786;-88
2024/04/22 11:13:43;;;;;;;2.30;1.60;;;;;;;18.01;48.42;99788.33;109540;1253;69273;-84
2024/04/22 11:16:12;;;;;;;3.50;1.70;;;;;;;17.99;49.37;99791.58;109463;1253;71383;-87
2024/04/22 11:22:23;;;;;;;1.60;1.50;;;;;;;18.16;44.26;99805.98;108337;1263;61579;-85
2024/04/22 11:25:31;;;;;;;1.60;1.50;;;;;;;17.71;44.62;99804.38;108615;1267;73205;-85
2024/04/22 11:28:01;;;;;;;2.10;1.40;;;;;;;17.36;45.55;99806.85;108624;1267;70322;-84
2024/04/22 11:30:33;;;;;;;1.50;1.40;;;;;;;16.95;45.79;99802.06;108506;1261;75043;-85
2024/04/22 11:33:24;;;;;;;1.80;1.40;;;;;;;16.71;47.40;99806.33;108878;1266;58484;-85
2024/04/22 11:36:10;;;;;;;2.10;1.90;;;;;;;16.43;46.86;99811.02;108510;1265;60835;-84
2024/04/22 11:38:47;;;;;;;1.40;1.30;;;;;;;16.32;48.31;99811.50;108603;1265;73524;-87
2024/04/22 11:41:36;;;;;;;2.00;1.90;;;;;;;16.39;47.58;99811.80;108765;1265;71069;-85
2024/04/22 11:47:42;;;;;;;1.60;1.50;;;;;;;17.10;46.97;99807.77;108658;1267;59018;-89
2024/04/22 11:50:15;;;;;;;1.80;1.70;;;;;;;17.60;46.85;99804.95;108664;1267;59673;-88
2024/04/22 11:53:13;;;;;;;2.70;1.50;;;;;;;18.09;46.00;99810.53;108620;1266;73614;-86
2024/04/22 11:56:07;;;;;;;1.70;1.60;;;;;;;18.54;44.94;99817.85;108716;1266;70322;-86